Time;durP1;ratioP1;P1;durP2;ratioP2;P2;SDS_P1;SDS_P2;PMS_P1;PMS_P2;Temp;Humidity;BMP_temperature;BMP_pressure;BME280_temperature;BME280_humidity;BME280_pressure;Samples;Min_cycle;Max_cycle;Signal;HPM_P1;HPM_P2
2022/11/27 00:01:31;;;;;;;5.35;4.03;;;3.00;99.90;;;;;;497153;239;27532;-66
2022/11/27 00:03:32;;;;;;;5.47;3.80;;;3.00;99.90;;;;;;497220;238;27475;-68
2022/11/27 00:05:33;;;;;;;5.65;3.78;;;3.00;99.90;;;;;;497223;239;27476;-66
2022/11/27 00:07:35;;;;;;;5.03;4.12;;;3.00;99.90;;;;;;497168;239;27481;-66
2022/11/27 00:09:36;;;;;;;5.55;3.75;;;3.00;99.90;;;;;;497193;239;28000;-65
2022/11/27 00:11:40;;;;;;;3.80;3.45;;;3.00;99.90;;;;;;497188;239;28047;-66
2022/11/27 00:13:41;;;;;;;4.30;3.45;;;3.00;99.90;;;;;;497181;239;27472;-66
2022/11/27 00:15:43;;;;;;;5.82;3.92;;;3.10;99.90;;;;;;497198;239;27477;-69
2022/11/27 00:17:44;;;;;;;6.40;4.47;;;3.10;99.90;;;;;;497182;239;27445;-65
2022/11/27 00:19:45;;;;;;;6.65;4.97;;;3.10;99.90;;;;;;497196;239;27519;-65
2022/11/27 00:21:46;;;;;;;7.72;4.40;;;3.20;99.90;;;;;;497166;239;27463;-65
2022/11/27 00:23:48;;;;;;;5.65;4.47;;;3.20;99.90;;;;;;497177;239;27612;-65
2022/11/27 00:25:49;;;;;;;5.57;4.35;;;3.10;99.90;;;;;;497204;239;27976;-68
2022/11/27 00:27:50;;;;;;;5.47;4.10;;;2.80;99.90;;;;;;497205;239;27488;-66
2022/11/27 00:29:51;;;;;;;5.12;3.67;;;2.60;99.90;;;;;;497163;239;27495;-66
2022/11/27 00:31:53;;;;;;;3.67;3.37;;;2.40;99.90;;;;;;497174;239;28859;-65
2022/11/27 00:33:54;;;;;;;3.75;3.35;;;2.30;99.90;;;;;;497171;239;28135;-65
2022/11/27 00:35:55;;;;;;;4.65;3.80;;;2.20;99.90;;;;;;497180;239;28055;-68
2022/11/27 00:37:56;;;;;;;4.22;3.58;;;2.20;99.90;;;;;;497200;239;28907;-66
2022/11/27 00:39:58;;;;;;;4.35;3.53;;;2.30;99.90;;;;;;497153;239;27580;-66
2022/11/27 00:41:59;;;;;;;8.45;4.80;;;2.60;99.90;;;;;;497179;238;27473;-65
2022/11/27 00:44:00;;;;;;;4.45;3.45;;;2.60;99.90;;;;;;497166;239;27500;-66
2022/11/27 00:46:01;;;;;;;5.43;3.90;;;2.60;99.90;;;;;;497216;239;27501;-69
2022/11/27 00:48:03;;;;;;;6.00;4.05;;;2.70;99.90;;;;;;497188;239;27444;-65
2022/11/27 00:50:04;;;;;;;6.05;4.35;;;2.70;99.90;;;;;;497130;239;27594;-66
2022/11/27 00:52:05;;;;;;;7.60;4.90;;;2.80;99.90;;;;;;497186;239;27550;-66
2022/11/27 00:54:06;;;;;;;6.70;4.80;;;2.90;99.90;;;;;;497191;239;27554;-65
2022/11/27 00:56:08;;;;;;;6.22;4.70;;;2.80;99.90;;;;;;497216;239;27568;-68
2022/11/27 00:58:09;;;;;;;5.47;4.30;;;2.80;99.90;;;;;;497180;239;27570;-65
2022/11/27 01:00:10;;;;;;;5.57;4.53;;;2.80;99.90;;;;;;497196;239;28003;-66
2022/11/27 01:02:11;;;;;;;5.85;4.05;;;2.80;99.90;;;;;;497193;239;28665;-65
2022/11/27 01:04:13;;;;;;;5.62;4.37;;;2.40;99.90;;;;;;497229;239;28984;-66
2022/11/27 01:06:14;;;;;;;7.22;4.47;;;2.30;99.90;;;;;;497140;239;27972;-69
2022/11/27 01:08:15;;;;;;;4.32;3.90;;;2.20;99.90;;;;;;497224;239;27437;-66
2022/11/27 01:10:16;;;;;;;4.28;3.87;;;2.10;99.90;;;;;;497200;239;27471;-66
2022/11/27 01:12:18;;;;;;;5.45;4.00;;;2.00;99.90;;;;;;497185;238;27542;-65
2022/11/27 01:14:19;;;;;;;5.37;3.85;;;1.90;99.90;;;;;;497211;239;27562;-65
2022/11/27 01:16:20;;;;;;;5.20;3.92;;;1.90;99.90;;;;;;497208;239;27481;-68
2022/11/27 01:18:21;;;;;;;7.55;4.20;;;1.90;99.90;;;;;;497201;239;27549;-66
2022/11/27 01:20:23;;;;;;;6.10;4.90;;;1.90;99.90;;;;;;497166;239;27491;-66
2022/11/27 01:22:24;;;;;;;5.60;4.22;;;1.80;99.90;;;;;;497162;239;27464;-66
2022/11/27 01:24:25;;;;;;;8.57;4.30;;;1.80;99.90;;;;;;497164;239;27457;-66
2022/11/27 01:26:26;;;;;;;3.78;3.40;;;1.60;99.90;;;;;;497205;239;27599;-68
2022/11/27 01:28:28;;;;;;;7.18;4.68;;;1.60;99.90;;;;;;497184;239;28010;-66
2022/11/27 01:30:29;;;;;;;5.18;4.20;;;1.50;99.90;;;;;;497173;239;27948;-66
2022/11/27 01:32:30;;;;;;;5.03;3.60;;;1.50;99.90;;;;;;497166;239;27958;-65
2022/11/27 01:34:31;;;;;;;5.40;3.65;;;1.60;99.90;;;;;;497169;239;27902;-66
2022/11/27 01:36:33;;;;;;;4.20;3.30;;;1.60;99.90;;;;;;497200;239;27480;-69
2022/11/27 01:38:34;;;;;;;6.40;4.45;;;1.60;99.90;;;;;;497180;239;27452;-65
2022/11/27 01:40:35;;;;;;;6.25;4.15;;;1.60;99.90;;;;;;497172;239;27492;-66
2022/11/27 01:42:36;;;;;;;4.80;4.30;;;1.60;99.90;;;;;;497149;239;27447;-66
2022/11/27 01:44:38;;;;;;;4.82;3.87;;;1.50;99.90;;;;;;497220;239;27531;-66
2022/11/27 01:46:39;;;;;;;4.80;3.72;;;1.50;99.90;;;;;;497200;239;27617;-67
2022/11/27 01:48:40;;;;;;;3.83;3.35;;;1.40;99.90;;;;;;497182;239;27539;-65
2022/11/27 01:50:41;;;;;;;4.35;3.72;;;1.30;99.90;;;;;;497185;239;27598;-66
2022/11/27 01:52:43;;;;;;;7.53;3.90;;;1.20;99.90;;;;;;497189;239;27543;-65
2022/11/27 01:54:44;;;;;;;5.85;4.28;;;1.20;99.90;;;;;;497194;239;27449;-65
2022/11/27 01:56:45;;;;;;;7.85;4.22;;;1.20;99.90;;;;;;497193;239;28012;-68
2022/11/27 01:58:46;;;;;;;4.40;3.72;;;1.30;99.90;;;;;;497178;239;27896;-66
2022/11/27 02:00:48;;;;;;;5.40;3.83;;;1.20;99.90;;;;;;497178;239;28081;-66
2022/11/27 02:02:49;;;;;;;3.62;3.30;;;1.20;99.90;;;;;;497152;239;27911;-65
2022/11/27 02:04:50;;;;;;;5.07;3.42;;;1.20;99.90;;;;;;497163;239;27479;-66
2022/11/27 02:06:51;;;;;;;4.05;3.55;;;1.00;99.90;;;;;;497184;239;27496;-69
2022/11/27 02:08:53;;;;;;;3.50;3.20;;;1.00;99.90;;;;;;497225;239;27433;-65
2022/11/27 02:10:54;;;;;;;4.28;3.30;;;1.00;99.90;;;;;;497177;239;27515;-66
2022/11/27 02:12:55;;;;;;;3.70;3.25;;;1.00;99.90;;;;;;497172;239;27558;-66
2022/11/27 02:14:56;;;;;;;4.28;3.37;;;1.10;99.90;;;;;;497180;239;27491;-65
2022/11/27 02:16:59;;;;;;;3.95;3.00;;;1.10;99.90;;;;;;497217;239;27535;-69
2022/11/27 02:19:00;;;;;;;3.47;2.95;;;1.10;99.90;;;;;;497184;239;27579;-67
2022/11/27 02:21:01;;;;;;;3.03;2.80;;;1.00;99.90;;;;;;497188;239;27535;-65
2022/11/27 02:23:02;;;;;;;3.10;2.80;;;1.00;99.90;;;;;;497154;239;27573;-68
2022/11/27 02:25:04;;;;;;;3.90;2.80;;;1.10;99.90;;;;;;497184;239;28688;-68
2022/11/27 02:27:05;;;;;;;3.58;3.03;;;1.10;99.90;;;;;;497199;239;27985;-65
2022/11/27 02:29:06;;;;;;;3.20;2.60;;;1.10;99.90;;;;;;497205;239;27924;-67
2022/11/27 02:31:07;;;;;;;3.78;2.90;;;1.20;99.90;;;;;;497196;239;27987;-65
2022/11/27 02:33:09;;;;;;;2.90;2.60;;;1.20;99.90;;;;;;497168;239;27582;-65
2022/11/27 02:35:10;;;;;;;3.42;3.05;;;1.20;99.90;;;;;;497214;239;27494;-65
2022/11/27 02:37:11;;;;;;;3.97;2.83;;;1.20;99.90;;;;;;497204;239;27444;-65
2022/11/27 02:39:12;;;;;;;2.67;2.47;;;1.30;99.90;;;;;;497222;239;27477;-67
2022/11/27 02:41:14;;;;;;;2.95;2.67;;;1.30;99.90;;;;;;497213;239;27468;-66
2022/11/27 02:43:15;;;;;;;3.12;2.83;;;1.30;99.90;;;;;;497139;239;27606;-66
2022/11/27 02:45:16;;;;;;;3.22;2.90;;;1.40;99.90;;;;;;497200;239;27595;-68
2022/11/27 02:47:17;;;;;;;2.92;2.70;;;1.40;99.90;;;;;;497181;239;27480;-66
2022/11/27 02:49:19;;;;;;;3.05;2.78;;;1.30;99.90;;;;;;497175;239;27495;-65
2022/11/27 02:51:20;;;;;;;3.53;3.17;;;1.30;99.90;;;;;;497184;239;27591;-66
2022/11/27 02:53:21;;;;;;;4.82;3.20;;;1.40;99.90;;;;;;497160;239;28035;-65
2022/11/27 02:55:22;;;;;;;3.45;3.03;;;1.30;99.90;;;;;;497233;239;28022;-68
2022/11/27 02:57:24;;;;;;;3.00;2.70;;;1.30;99.90;;;;;;497224;239;27912;-65
2022/11/27 02:59:25;;;;;;;3.80;3.12;;;1.30;99.90;;;;;;497212;239;28042;-66
2022/11/27 03:01:26;;;;;;;3.00;2.70;;;1.30;99.90;;;;;;497185;239;27556;-65
2022/11/27 03:03:27;;;;;;;3.30;3.00;;;1.20;99.90;;;;;;497192;239;27534;-65
2022/11/27 03:05:29;;;;;;;4.00;3.10;;;1.20;99.90;;;;;;497239;239;27610;-65
2022/11/27 03:07:30;;;;;;;3.40;3.10;;;1.20;99.90;;;;;;497212;239;27480;-65
2022/11/27 03:09:31;;;;;;;3.20;2.90;;;1.20;99.90;;;;;;497207;239;27480;-67
2022/11/27 03:11:32;;;;;;;3.40;3.10;;;1.20;99.90;;;;;;497199;239;27464;-65
2022/11/27 03:13:35;;;;;;;4.03;3.25;;;1.30;99.90;;;;;;497202;239;27491;-67
2022/11/27 03:15:35;;;;;;;2.70;2.50;;;1.30;99.90;;;;;;497187;239;27763;-68
2022/11/27 03:17:36;;;;;;;3.03;2.70;;;1.30;99.90;;;;;;497034;239;27548;-66
2022/11/27 03:19:37;;;;;;;3.05;2.75;;;1.40;99.90;;;;;;497217;239;27484;-67
2022/11/27 03:21:39;;;;;;;3.15;2.85;;;1.40;99.90;;;;;;497215;239;27936;-65
2022/11/27 03:23:40;;;;;;;2.50;2.30;;;1.40;99.90;;;;;;497183;239;28113;-66
2022/11/27 03:25:41;;;;;;;2.12;2.03;;;1.40;99.90;;;;;;497202;239;28131;-65
2022/11/27 03:27:42;;;;;;;2.37;2.17;;;1.40;99.90;;;;;;497217;239;27914;-66
2022/11/27 03:29:44;;;;;;;2.15;2.05;;;1.40;99.90;;;;;;497205;239;27558;-67
2022/11/27 03:31:45;;;;;;;2.67;2.50;;;1.30;99.90;;;;;;497188;239;27532;-65
2022/11/27 03:33:46;;;;;;;2.30;2.20;;;1.40;99.90;;;;;;497214;239;27579;-66
2022/11/27 03:35:47;;;;;;;2.80;2.60;;;1.30;99.90;;;;;;497184;239;27472;-65
2022/11/27 03:37:49;;;;;;;3.03;2.83;;;1.30;99.90;;;;;;497223;239;27528;-65
2022/11/27 03:39:50;;;;;;;2.70;2.20;;;1.20;99.90;;;;;;497216;239;27545;-68
2022/11/27 03:41:51;;;;;;;2.90;2.60;;;1.20;99.90;;;;;;497223;239;27559;-66
2022/11/27 03:43:52;;;;;;;2.85;2.60;;;1.20;99.90;;;;;;497168;239;27483;-68
2022/11/27 03:45:54;;;;;;;3.10;2.80;;;1.20;99.90;;;;;;497193;239;27459;-65
2022/11/27 03:47:55;;;;;;;2.35;2.25;;;1.20;99.90;;;;;;497226;239;27357;-65
2022/11/27 03:49:56;;;;;;;2.30;2.20;;;1.10;99.90;;;;;;497202;239;27476;-67
2022/11/27 03:51:57;;;;;;;2.72;2.53;;;1.10;99.90;;;;;;497221;239;27987;-65
2022/11/27 03:53:59;;;;;;;3.67;2.55;;;1.00;99.90;;;;;;497191;239;27957;-66
2022/11/27 03:56:00;;;;;;;2.55;2.35;;;1.00;99.90;;;;;;497105;239;28654;-65
2022/11/27 03:58:01;;;;;;;2.60;2.40;;;1.10;99.90;;;;;;497210;239;27626;-65
2022/11/27 04:00:02;;;;;;;2.80;2.60;;;1.10;99.90;;;;;;497215;239;27503;-67
2022/11/27 04:02:04;;;;;;;2.05;1.95;;;1.10;99.90;;;;;;497186;239;27540;-66
2022/11/27 04:04:05;;;;;;;2.95;2.75;;;1.00;99.90;;;;;;497171;239;27515;-66
2022/11/27 04:06:06;;;;;;;2.42;2.33;;;1.00;99.90;;;;;;497214;239;27501;-65
2022/11/27 04:08:07;;;;;;;2.53;2.35;;;1.00;99.90;;;;;;497218;239;27461;-66
2022/11/27 04:10:09;;;;;;;2.25;2.10;;;1.00;99.90;;;;;;497199;239;27491;-67
2022/11/27 04:12:10;;;;;;;2.65;2.45;;;1.00;99.90;;;;;;497184;239;27849;-65
2022/11/27 04:14:11;;;;;;;2.83;2.62;;;1.00;99.90;;;;;;497170;239;27553;-66
2022/11/27 04:16:12;;;;;;;2.78;2.58;;;1.10;99.90;;;;;;497186;239;27483;-69
2022/11/27 04:18:14;;;;;;;2.17;2.08;;;1.00;99.90;;;;;;497205;239;27904;-65
2022/11/27 04:20:15;;;;;;;2.17;2.08;;;1.00;99.90;;;;;;497175;239;27962;-66
2022/11/27 04:22:16;;;;;;;2.70;2.50;;;1.00;99.90;;;;;;497171;239;27945;-65
2022/11/27 04:24:17;;;;;;;2.60;2.40;;;1.10;99.90;;;;;;497172;239;27935;-65
2022/11/27 04:26:19;;;;;;;2.47;2.30;;;1.10;99.90;;;;;;497213;239;27503;-68
2022/11/27 04:28:20;;;;;;;2.22;2.10;;;1.10;99.90;;;;;;497205;239;27829;-65
2022/11/27 04:30:21;;;;;;;2.75;2.55;;;1.10;99.90;;;;;;497164;239;27587;-66
2022/11/27 04:32:22;;;;;;;2.55;2.45;;;1.10;99.90;;;;;;497178;239;27472;-65
2022/11/27 04:34:24;;;;;;;1.92;1.83;;;1.10;99.90;;;;;;497161;239;27523;-67
2022/11/27 04:36:25;;;;;;;2.28;2.17;;;1.10;99.90;;;;;;497209;239;27602;-68
2022/11/27 04:38:26;;;;;;;2.40;2.30;;;1.10;99.90;;;;;;497197;239;27556;-65
2022/11/27 04:40:27;;;;;;;2.53;2.33;;;1.20;99.90;;;;;;497173;239;27570;-66
2022/11/27 04:42:29;;;;;;;2.70;2.50;;;1.20;99.90;;;;;;497183;239;27530;-65
2022/11/27 04:44:30;;;;;;;2.40;2.30;;;1.20;99.90;;;;;;497157;239;27950;-65
2022/11/27 04:46:31;;;;;;;2.28;2.17;;;1.20;99.90;;;;;;497172;239;27487;-68
2022/11/27 04:48:32;;;;;;;4.10;2.47;;;1.30;99.90;;;;;;497134;239;27925;-65
2022/11/27 04:50:34;;;;;;;2.53;2.40;;;1.30;99.90;;;;;;497145;239;27970;-66
2022/11/27 04:52:35;;;;;;;2.90;2.70;;;1.20;99.90;;;;;;497170;239;29231;-65
2022/11/27 04:54:36;;;;;;;2.78;2.30;;;1.20;99.90;;;;;;497240;239;27441;-65
2022/11/27 04:56:37;;;;;;;2.53;2.37;;;1.20;99.90;;;;;;497213;239;27484;-68
2022/11/27 04:58:39;;;;;;;2.97;2.50;;;1.20;99.90;;;;;;497214;239;27447;-66
2022/11/27 05:00:40;;;;;;;2.65;2.45;;;1.30;99.90;;;;;;497187;239;27527;-66
2022/11/27 05:02:41;;;;;;;2.87;2.50;;;1.20;99.90;;;;;;497175;239;27575;-66
2022/11/27 05:04:42;;;;;;;2.40;2.30;;;1.10;99.90;;;;;;497174;239;27471;-66
2022/11/27 05:06:44;;;;;;;2.45;2.25;;;1.10;99.90;;;;;;497210;239;27606;-67
2022/11/27 05:08:45;;;;;;;2.40;2.30;;;1.00;99.90;;;;;;497184;239;27453;-65
2022/11/27 05:10:46;;;;;;;2.50;2.40;;;1.00;99.90;;;;;;497222;239;27591;-66
2022/11/27 05:12:47;;;;;;;2.70;2.50;;;1.00;99.90;;;;;;497190;239;27440;-66
2022/11/27 05:14:49;;;;;;;2.83;2.65;;;1.00;99.90;;;;;;497172;239;27880;-67
2022/11/27 05:16:50;;;;;;;2.75;2.55;;;1.00;99.90;;;;;;497226;239;27972;-69
2022/11/27 05:18:51;;;;;;;2.65;2.45;;;1.10;99.90;;;;;;497200;239;27828;-65
2022/11/27 05:20:52;;;;;;;2.85;2.65;;;1.10;99.90;;;;;;497208;239;27966;-66
2022/11/27 05:22:54;;;;;;;3.00;2.80;;;1.10;99.90;;;;;;497203;239;27449;-65
2022/11/27 05:24:55;;;;;;;2.67;2.50;;;1.10;99.90;;;;;;497068;239;27571;-66
2022/11/27 05:26:56;;;;;;;3.08;2.78;;;1.10;99.90;;;;;;497232;239;27556;-68
2022/11/27 05:28:57;;;;;;;2.50;2.30;;;1.20;99.90;;;;;;497196;239;27549;-65
2022/11/27 05:30:59;;;;;;;2.75;2.55;;;1.20;99.90;;;;;;497191;239;27484;-67
2022/11/27 05:33:00;;;;;;;2.30;2.20;;;1.20;99.90;;;;;;497190;239;27849;-66
2022/11/27 05:35:01;;;;;;;2.55;2.37;;;1.20;99.90;;;;;;497194;239;27516;-66
2022/11/27 05:37:02;;;;;;;2.50;2.30;;;1.20;99.90;;;;;;497201;239;27496;-69
2022/11/27 05:39:05;;;;;;;2.95;2.72;;;1.30;99.90;;;;;;497208;239;27453;-67
2022/11/27 05:41:05;;;;;;;3.08;2.42;;;1.20;99.90;;;;;;497141;239;27570;-67
2022/11/27 05:43:06;;;;;;;2.72;2.53;;;1.20;99.90;;;;;;497174;239;27932;-65
2022/11/27 05:45:08;;;;;;;3.12;2.92;;;1.20;99.90;;;;;;497192;239;28011;-65
2022/11/27 05:47:09;;;;;;;2.85;2.65;;;1.30;99.90;;;;;;497225;239;28030;-68
2022/11/27 05:49:10;;;;;;;2.90;2.70;;;1.30;99.90;;;;;;497198;239;28351;-65
2022/11/27 05:51:11;;;;;;;2.80;2.65;;;1.40;99.90;;;;;;497228;239;27473;-66
2022/11/27 05:53:13;;;;;;;3.87;2.42;;;1.50;99.90;;;;;;497172;239;27445;-65
2022/11/27 05:55:14;;;;;;;2.83;2.60;;;1.50;99.90;;;;;;497177;239;27472;-66
2022/11/27 05:57:15;;;;;;;3.20;2.42;;;1.50;99.90;;;;;;497192;239;27574;-69
2022/11/27 05:59:16;;;;;;;2.53;2.33;;;1.40;99.90;;;;;;497184;239;27468;-66
2022/11/27 06:01:18;;;;;;;2.25;2.15;;;1.40;99.90;;;;;;497180;239;27504;-67
2022/11/27 06:03:19;;;;;;;3.00;2.80;;;1.40;99.90;;;;;;497190;239;27467;-66
2022/11/27 06:05:20;;;;;;;2.65;2.55;;;1.40;99.90;;;;;;497142;239;27539;-65
2022/11/27 06:07:21;;;;;;;2.45;2.35;;;1.50;99.90;;;;;;497200;239;27626;-68
2022/11/27 06:09:23;;;;;;;2.90;2.53;;;1.50;99.90;;;;;;497194;239;27543;-66
2022/11/27 06:11:24;;;;;;;2.55;2.40;;;1.40;99.90;;;;;;497158;239;28008;-66
2022/11/27 06:13:25;;;;;;;2.35;2.25;;;1.50;99.90;;;;;;497157;239;27980;-66
2022/11/27 06:15:26;;;;;;;3.03;2.83;;;1.50;99.90;;;;;;497171;239;28018;-65
2022/11/27 06:17:28;;;;;;;2.28;2.17;;;1.40;99.90;;;;;;497175;239;28070;-68
2022/11/27 06:19:29;;;;;;;2.30;2.20;;;1.40;99.90;;;;;;497023;239;27503;-65
2022/11/27 06:21:30;;;;;;;2.60;2.40;;;1.40;99.90;;;;;;497002;239;27492;-66
2022/11/27 06:23:31;;;;;;;2.95;2.75;;;1.40;99.90;;;;;;496958;239;27536;-65
2022/11/27 06:25:33;;;;;;;2.90;2.70;;;1.40;99.90;;;;;;496925;239;27569;-66
2022/11/27 06:27:34;;;;;;;3.20;3.00;;;1.40;99.90;;;;;;497176;239;27472;-68
2022/11/27 06:29:35;;;;;;;2.75;2.55;;;1.50;99.90;;;;;;497168;239;27449;-65
2022/11/27 06:31:36;;;;;;;2.90;2.70;;;1.50;99.90;;;;;;497170;239;27491;-66
2022/11/27 06:33:38;;;;;;;3.00;2.78;;;1.50;99.90;;;;;;497164;239;27453;-65
2022/11/27 06:35:39;;;;;;;3.40;3.20;;;1.50;99.90;;;;;;497183;239;27444;-65
2022/11/27 06:37:40;;;;;;;3.10;2.90;;;1.50;99.90;;;;;;497200;239;27873;-67
2022/11/27 06:39:41;;;;;;;3.72;3.42;;;1.50;99.90;;;;;;497183;239;27964;-66
2022/11/27 06:41:43;;;;;;;2.90;2.70;;;1.60;99.90;;;;;;497194;239;28039;-67
2022/11/27 06:43:44;;;;;;;3.50;3.20;;;1.60;99.90;;;;;;497159;239;27997;-65
2022/11/27 06:45:45;;;;;;;3.10;2.90;;;1.60;99.90;;;;;;497167;239;28016;-66
2022/11/27 06:47:46;;;;;;;2.85;2.65;;;1.50;99.90;;;;;;497224;239;27400;-68
2022/11/27 06:49:48;;;;;;;3.50;3.10;;;1.60;99.90;;;;;;496999;239;27535;-65
2022/11/27 06:51:49;;;;;;;2.90;2.70;;;1.60;99.90;;;;;;497195;239;27515;-66
2022/11/27 06:53:50;;;;;;;2.92;2.72;;;1.60;99.90;;;;;;497171;239;27524;-65
2022/11/27 06:55:54;;;;;;;3.10;2.80;;;1.60;99.90;;;;;;497170;239;27586;-65
2022/11/27 06:57:56;;;;;;;3.12;2.85;;;1.60;99.90;;;;;;497174;239;27453;-66
2022/11/27 06:59:57;;;;;;;3.40;3.20;;;1.60;99.90;;;;;;497194;239;27499;-66
2022/11/27 07:01:58;;;;;;;3.45;3.20;;;1.60;99.90;;;;;;497180;239;27519;-65
2022/11/27 07:03:59;;;;;;;3.87;3.58;;;1.60;99.90;;;;;;497168;239;27603;-65
2022/11/27 07:06:01;;;;;;;3.75;3.45;;;1.60;99.90;;;;;;497205;239;27548;-68
2022/11/27 07:08:02;;;;;;;3.30;3.10;;;1.70;99.90;;;;;;497213;239;27955;-65
2022/11/27 07:10:03;;;;;;;3.60;3.30;;;1.70;99.90;;;;;;497179;239;27928;-66
2022/11/27 07:12:05;;;;;;;3.80;3.50;;;1.70;99.90;;;;;;497153;239;27921;-66
2022/11/27 07:14:06;;;;;;;3.20;3.00;;;1.70;99.90;;;;;;497159;239;27998;-66
2022/11/27 07:16:07;;;;;;;3.10;2.90;;;1.60;99.90;;;;;;497217;239;27575;-69
2022/11/27 07:18:08;;;;;;;3.50;3.20;;;1.70;99.90;;;;;;497204;239;27456;-65
2022/11/27 07:20:09;;;;;;;3.67;3.40;;;1.80;99.90;;;;;;497200;239;27579;-66
2022/11/27 07:22:11;;;;;;;3.45;3.20;;;1.80;99.90;;;;;;497152;239;27496;-65
2022/11/27 07:24:12;;;;;;;3.70;3.50;;;1.80;99.90;;;;;;497178;239;27489;-66
2022/11/27 07:26:13;;;;;;;2.80;2.60;;;1.60;99.90;;;;;;497209;239;27512;-69
2022/11/27 07:28:14;;;;;;;3.42;3.22;;;1.50;99.90;;;;;;497209;239;27472;-67
2022/11/27 07:30:16;;;;;;;3.12;2.92;;;1.60;99.90;;;;;;497176;239;27566;-66
2022/11/27 07:32:17;;;;;;;3.00;2.80;;;1.60;99.90;;;;;;497179;239;27457;-65
2022/11/27 07:34:18;;;;;;;3.62;3.33;;;1.60;99.90;;;;;;497180;239;27476;-66
2022/11/27 07:36:19;;;;;;;2.83;2.62;;;1.70;99.90;;;;;;497218;239;27997;-69
2022/11/27 07:38:21;;;;;;;3.00;2.80;;;1.70;99.90;;;;;;497203;239;27945;-65
2022/11/27 07:40:22;;;;;;;2.95;2.75;;;1.50;99.90;;;;;;497197;239;28039;-67
2022/11/27 07:42:23;;;;;;;3.30;3.10;;;1.60;99.90;;;;;;497200;239;27908;-65
2022/11/27 07:44:24;;;;;;;3.15;2.95;;;1.60;99.90;;;;;;497204;239;27485;-66
2022/11/27 07:46:26;;;;;;;3.47;2.87;;;1.60;99.90;;;;;;497184;239;27535;-69
2022/11/27 07:48:27;;;;;;;3.33;3.12;;;1.70;99.90;;;;;;497222;239;27445;-65
2022/11/27 07:50:29;;;;;;;3.62;3.28;;;1.80;99.90;;;;;;497204;239;27516;-67
2022/11/27 07:52:29;;;;;;;3.12;2.85;;;1.80;99.90;;;;;;497183;239;27525;-66
2022/11/27 07:54:31;;;;;;;2.85;2.65;;;1.80;99.90;;;;;;497195;239;27607;-67
2022/11/27 07:56:33;;;;;;;3.05;2.85;;;1.90;99.90;;;;;;497218;239;27525;-69
2022/11/27 07:58:35;;;;;;;3.55;3.25;;;2.00;99.90;;;;;;497191;239;27489;-66
2022/11/27 08:00:36;;;;;;;3.28;2.97;;;2.10;99.90;;;;;;497181;239;27449;-65
2022/11/27 08:02:37;;;;;;;3.03;2.83;;;2.20;99.90;;;;;;497210;239;27353;-66
2022/11/27 08:04:38;;;;;;;3.60;3.30;;;2.20;99.90;;;;;;497217;239;28063;-68
2022/11/27 08:06:40;;;;;;;3.83;3.40;;;2.30;99.90;;;;;;497190;239;27996;-66
2022/11/27 08:08:41;;;;;;;4.00;3.50;;;2.30;99.90;;;;;;497201;239;28035;-66
2022/11/27 08:10:42;;;;;;;4.00;3.70;;;2.30;99.90;;;;;;497186;239;27905;-65
2022/11/27 08:12:43;;;;;;;3.70;3.40;;;2.40;99.90;;;;;;497201;239;27614;-65
2022/11/27 08:14:45;;;;;;;8.15;3.37;;;2.40;99.90;;;;;;497223;239;27416;-69
2022/11/27 08:16:46;;;;;;;3.45;3.25;;;2.40;99.90;;;;;;497192;239;27461;-66
2022/11/27 08:18:47;;;;;;;3.65;3.35;;;2.40;99.90;;;;;;497167;239;27593;-66
2022/11/27 08:20:48;;;;;;;4.30;3.90;;;2.40;99.90;;;;;;497189;239;27583;-66
2022/11/27 08:22:50;;;;;;;4.70;3.60;;;2.40;99.90;;;;;;497210;239;27574;-66
2022/11/27 08:24:52;;;;;;;3.90;3.60;;;2.30;99.90;;;;;;497227;239;27429;-69
2022/11/27 08:26:53;;;;;;;3.90;3.60;;;2.30;99.90;;;;;;497209;239;27574;-67
2022/11/27 08:28:54;;;;;;;4.00;3.70;;;2.30;99.90;;;;;;497177;239;27449;-66
2022/11/27 08:30:56;;;;;;;3.67;3.37;;;2.30;99.90;;;;;;497165;239;27530;-67
2022/11/27 08:32:57;;;;;;;2.90;2.70;;;2.30;99.90;;;;;;497197;239;28403;-65
2022/11/27 08:34:58;;;;;;;3.10;2.80;;;2.30;99.90;;;;;;497231;239;27969;-66
2022/11/27 08:36:59;;;;;;;3.25;2.95;;;2.40;99.90;;;;;;497210;239;27968;-66
2022/11/27 08:39:01;;;;;;;3.40;3.10;;;2.50;99.90;;;;;;497191;239;28409;-65
2022/11/27 08:41:02;;;;;;;3.05;2.85;;;2.50;99.90;;;;;;497168;239;27590;-66
2022/11/27 08:43:03;;;;;;;5.10;3.25;;;2.50;99.90;;;;;;497164;239;27498;-65
2022/11/27 08:45:04;;;;;;;3.45;3.17;;;2.60;99.90;;;;;;497189;239;27441;-66
2022/11/27 08:47:06;;;;;;;3.17;2.90;;;2.60;99.90;;;;;;497175;239;27484;-68
2022/11/27 08:49:07;;;;;;;2.80;2.60;;;2.80;99.90;;;;;;497195;239;27453;-65
2022/11/27 08:51:08;;;;;;;3.20;3.00;;;2.90;99.90;;;;;;497176;239;27493;-66
2022/11/27 08:53:09;;;;;;;3.60;3.30;;;3.00;99.90;;;;;;497147;239;27452;-66
2022/11/27 08:55:11;;;;;;;3.22;3.03;;;3.00;99.90;;;;;;497232;239;27939;-64
2022/11/27 08:57:12;;;;;;;5.70;3.70;;;3.10;99.90;;;;;;497217;239;27397;-65
2022/11/27 08:59:13;;;;;;;3.78;3.47;;;3.10;99.90;;;;;;497201;239;27449;-63
2022/11/27 09:01:14;;;;;;;3.92;3.53;;;3.10;99.90;;;;;;497177;239;28011;-67
2022/11/27 09:03:16;;;;;;;4.03;3.62;;;3.10;99.90;;;;;;497175;239;28699;-65
2022/11/27 09:05:17;;;;;;;3.70;3.40;;;3.20;99.90;;;;;;497211;239;28007;-66
2022/11/27 09:07:18;;;;;;;3.92;3.53;;;3.20;99.90;;;;;;497177;239;27997;-67
2022/11/27 09:09:19;;;;;;;5.32;3.40;;;3.30;99.90;;;;;;497184;239;27524;-66
2022/11/27 09:11:21;;;;;;;3.25;3.05;;;3.30;99.90;;;;;;497177;239;27493;-66
2022/11/27 09:13:22;;;;;;;4.22;3.83;;;3.40;99.90;;;;;;497172;239;27504;-66
2022/11/27 09:15:23;;;;;;;4.18;3.85;;;3.50;99.90;;;;;;497207;239;27444;-65
2022/11/27 09:17:24;;;;;;;4.82;3.83;;;3.60;99.90;;;;;;497193;239;27517;-68
2022/11/27 09:19:26;;;;;;;3.80;3.50;;;3.70;99.90;;;;;;497189;239;27449;-69
2022/11/27 09:21:27;;;;;;;3.47;3.22;;;3.80;99.90;;;;;;497180;239;27614;-66
2022/11/27 09:23:28;;;;;;;3.92;3.62;;;4.00;99.90;;;;;;497141;239;27481;-69
2022/11/27 09:25:29;;;;;;;3.75;3.45;;;4.10;99.90;;;;;;497199;239;27555;-66
2022/11/27 09:27:31;;;;;;;5.18;4.40;;;4.20;99.90;;;;;;497164;239;27594;-67
2022/11/27 09:29:32;;;;;;;3.80;3.45;;;4.20;99.90;;;;;;497198;239;27904;-66
2022/11/27 09:31:33;;;;;;;3.87;3.58;;;4.30;99.90;;;;;;497160;239;27949;-66
2022/11/27 09:33:34;;;;;;;4.03;3.72;;;4.30;99.90;;;;;;497205;239;29131;-68
2022/11/27 09:35:36;;;;;;;5.00;4.12;;;4.30;99.90;;;;;;497189;239;27910;-66
2022/11/27 09:37:37;;;;;;;4.28;3.87;;;4.20;99.90;;;;;;497179;239;27484;-66
2022/11/27 09:39:38;;;;;;;4.15;3.75;;;4.20;99.90;;;;;;497171;239;27509;-66
2022/11/27 09:41:39;;;;;;;3.75;3.45;;;4.20;99.90;;;;;;497186;239;27489;-66
2022/11/27 09:43:41;;;;;;;4.43;3.70;;;4.20;99.90;;;;;;497208;239;27607;-69
2022/11/27 09:45:42;;;;;;;4.37;3.97;;;4.20;99.90;;;;;;497195;239;27548;-66
2022/11/27 09:47:43;;;;;;;4.43;4.03;;;4.30;99.90;;;;;;497176;239;27512;-67
2022/11/27 09:49:45;;;;;;;4.32;3.92;;;4.40;99.90;;;;;;497146;239;27475;-66
2022/11/27 09:51:46;;;;;;;5.62;3.70;;;4.50;99.90;;;;;;497194;239;27495;-66
2022/11/27 09:53:47;;;;;;;7.05;4.28;;;4.60;99.90;;;;;;497230;239;27497;-69
2022/11/27 09:55:48;;;;;;;4.70;4.30;;;4.60;99.90;;;;;;497206;239;27893;-66
2022/11/27 09:57:49;;;;;;;5.32;4.80;;;4.70;99.90;;;;;;497187;239;27954;-66
2022/11/27 09:59:51;;;;;;;5.07;4.22;;;4.80;99.90;;;;;;497202;239;27972;-66
2022/11/27 10:01:52;;;;;;;5.20;4.70;;;4.80;99.90;;;;;;497156;239;27551;-66
2022/11/27 10:03:53;;;;;;;4.90;4.50;;;4.90;99.90;;;;;;497221;239;27477;-69
2022/11/27 10:05:54;;;;;;;5.28;4.68;;;5.00;99.90;;;;;;497186;239;27456;-66
2022/11/27 10:07:57;;;;;;;5.87;4.93;;;5.00;99.90;;;;;;497165;239;27602;-66
2022/11/27 10:09:57;;;;;;;4.90;4.05;;;5.00;99.90;;;;;;497139;239;27518;-66
2022/11/27 10:11:58;;;;;;;4.95;4.37;;;5.00;99.90;;;;;;497196;239;27511;-66
2022/11/27 10:14:01;;;;;;;4.55;4.15;;;5.10;99.90;;;;;;497234;239;27473;-69
2022/11/27 10:16:01;;;;;;;4.25;3.85;;;5.10;99.90;;;;;;497130;239;27560;-67
2022/11/27 10:18:02;;;;;;;4.85;4.35;;;5.10;99.90;;;;;;497212;239;28010;-67
2022/11/27 10:20:03;;;;;;;5.20;3.75;;;5.20;99.90;;;;;;497211;239;27889;-66
2022/11/27 10:22:05;;;;;;;5.70;4.80;;;5.30;99.90;;;;;;497199;239;27891;-66
2022/11/27 10:24:06;;;;;;;4.40;3.92;;;5.30;99.90;;;;;;497230;239;27475;-69
2022/11/27 10:26:07;;;;;;;3.65;3.35;;;5.30;99.90;;;;;;497271;239;27456;-66
2022/11/27 10:28:08;;;;;;;3.55;3.25;;;5.40;99.90;;;;;;497190;239;27508;-67
2022/11/27 10:30:10;;;;;;;4.03;3.65;;;5.40;99.90;;;;;;497170;239;27441;-66
2022/11/27 10:32:11;;;;;;;4.03;3.30;;;5.40;99.90;;;;;;497237;239;27576;-66
2022/11/27 10:34:12;;;;;;;4.20;3.80;;;5.30;99.90;;;;;;497219;239;27485;-67
2022/11/27 10:36:13;;;;;;;3.90;3.08;;;5.30;99.90;;;;;;497197;239;27560;-66
2022/11/27 10:38:15;;;;;;;3.80;3.40;;;5.40;99.90;;;;;;497166;239;27942;-66
2022/11/27 10:40:16;;;;;;;3.20;2.90;;;5.40;99.90;;;;;;497170;239;29739;-66